Time;durP1;ratioP1;P1;durP2;ratioP2;P2;SDS_P1;SDS_P2;PMS_P1;PMS_P2;Temp;Humidity;BMP_temperature;BMP_pressure;BME280_temperature;BME280_humidity;BME280_pressure;Samples;Min_cycle;Max_cycle;Signal;HPM_P1;HPM_P2
2021/06/01 00:01:45;;;;;;;5.38;4.88;;;12.10;99.90;;;;;;5095405;28;20451;-66
2021/06/01 00:04:11;;;;;;;5.78;4.93;;;12.00;99.90;;;;;;5095232;28;20180;-67
2021/06/01 00:06:38;;;;;;;5.60;4.03;;;11.90;99.90;;;;;;5096765;28;20209;-65
2021/06/01 00:09:07;;;;;;;5.23;4.73;;;11.90;99.90;;;;;;5096270;28;20413;-66
2021/06/01 00:11:32;;;;;;;10.40;4.77;;;11.90;99.90;;;;;;5096240;28;20480;-65
2021/06/01 00:13:58;;;;;;;6.13;4.33;;;11.90;99.90;;;;;;5096212;28;20452;-67
2021/06/01 00:16:24;;;;;;;7.13;5.27;;;11.80;99.90;;;;;;5096518;28;20541;-65
2021/06/01 00:18:49;;;;;;;6.30;4.60;;;11.90;99.90;;;;;;5096221;28;20180;-68
2021/06/01 00:21:15;;;;;;;4.70;4.03;;;11.90;99.90;;;;;;5095056;28;20453;-65
2021/06/01 00:23:41;;;;;;;5.00;4.50;;;11.80;99.90;;;;;;5096250;28;20645;-66
2021/06/01 00:26:10;;;;;;;5.03;4.53;;;11.80;99.90;;;;;;5096251;28;20200;-65
2021/06/01 00:28:37;;;;;;;5.35;4.85;;;11.80;99.90;;;;;;5096090;28;20401;-65
2021/06/01 00:31:03;;;;;;;6.83;4.73;;;11.80;99.90;;;;;;5096101;28;20287;-65
2021/06/01 00:33:28;;;;;;;5.80;4.80;;;11.80;99.90;;;;;;5095964;28;20900;-67
2021/06/01 00:35:54;;;;;;;5.13;4.63;;;11.90;99.90;;;;;;5096070;28;20554;-66
2021/06/01 00:38:20;;;;;;;5.30;4.60;;;11.80;99.90;;;;;;5095883;28;20177;-66
2021/06/01 00:40:46;;;;;;;5.00;4.50;;;11.90;99.90;;;;;;5095827;28;20574;-66
2021/06/01 00:43:11;;;;;;;5.87;5.10;;;11.70;99.90;;;;;;5095790;28;20436;-67
2021/06/01 00:45:37;;;;;;;6.43;4.33;;;11.70;99.90;;;;;;5095846;28;20564;-66
2021/06/01 00:48:03;;;;;;;5.23;4.70;;;11.80;99.90;;;;;;5095636;28;20169;-67
2021/06/01 00:50:29;;;;;;;5.23;4.73;;;11.80;99.90;;;;;;5095520;28;20456;-66
2021/06/01 00:52:56;;;;;;;9.73;5.00;;;11.80;99.90;;;;;;5095462;28;20393;-65
2021/06/01 00:55:23;;;;;;;5.20;4.70;;;11.70;99.90;;;;;;5095535;28;20825;-65
2021/06/01 00:57:51;;;;;;;5.82;4.68;;;11.80;99.90;;;;;;5095442;28;20225;-65
2021/06/01 01:03:00;;;;;;;4.72;4.20;;;11.70;99.90;;;;;;5095655;28;20222;-65
2021/06/01 01:05:32;;;;;;;5.00;4.40;;;11.70;99.90;;;;;;5095342;28;20241;-65
2021/06/01 01:08:20;;;;;;;9.38;4.65;;;11.70;99.90;;;;;;5093981;28;20403;-68
2021/06/01 01:10:52;;;;;;;6.45;4.35;;;11.60;99.90;;;;;;5094005;28;20291;-65
2021/06/01 01:13:19;;;;;;;5.50;4.53;;;11.70;99.90;;;;;;5095195;28;20704;-66
2021/06/01 01:15:49;;;;;;;5.03;4.40;;;11.70;99.90;;;;;;5095245;28;20224;-66
2021/06/01 01:18:18;;;;;;;4.68;4.20;;;11.70;99.90;;;;;;5095098;28;20226;-65
2021/06/01 01:21:00;;;;;;;5.20;4.70;;;11.70;99.90;;;;;;5095137;28;20196;-67
2021/06/01 01:23:33;;;;;;;6.50;5.28;;;11.70;99.90;;;;;;5095130;28;20507;-66
2021/06/01 01:26:22;;;;;;;8.25;4.63;;;11.60;99.90;;;;;;5095205;28;20200;-65
2021/06/01 01:29:11;;;;;;;4.88;4.38;;;11.70;99.90;;;;;;5094916;28;20230;-66
2021/06/01 01:31:59;;;;;;;7.10;4.03;;;11.70;99.90;;;;;;5093863;28;20196;-67
2021/06/01 01:34:28;;;;;;;6.25;5.35;;;11.70;99.90;;;;;;5093463;28;20208;-67
2021/06/01 01:36:55;;;;;;;4.68;4.22;;;11.70;99.90;;;;;;5095109;28;20193;-66
2021/06/01 01:39:23;;;;;;;5.07;4.57;;;11.60;99.90;;;;;;5094751;28;20653;-66
2021/06/01 01:41:50;;;;;;;5.40;4.90;;;11.50;99.90;;;;;;5094558;28;20295;-67
2021/06/01 01:44:18;;;;;;;5.18;4.30;;;11.40;99.90;;;;;;5093348;28;20219;-65
2021/06/01 01:49:18;;;;;;;5.82;4.40;;;11.40;99.90;;;;;;5094942;28;20168;-67
2021/06/01 01:51:47;;;;;;;5.03;4.53;;;11.30;99.90;;;;;;5094889;28;20195;-66
2021/06/01 01:54:17;;;;;;;5.18;4.38;;;11.20;99.90;;;;;;5094449;28;20235;-66
2021/06/01 01:56:51;;;;;;;5.88;4.90;;;11.20;99.90;;;;;;5094753;28;20200;-65
2021/06/01 01:59:24;;;;;;;5.18;4.68;;;11.20;99.90;;;;;;5094486;28;20156;-67
2021/06/01 02:01:51;;;;;;;5.25;4.30;;;11.20;99.90;;;;;;5093204;28;20209;-66
2021/06/01 02:04:29;;;;;;;7.50;5.63;;;11.20;99.90;;;;;;5093010;28;20268;-66
2021/06/01 02:06:55;;;;;;;5.82;5.22;;;11.20;99.90;;;;;;5094630;28;20203;-66
2021/06/01 02:09:22;;;;;;;4.85;4.45;;;11.20;99.90;;;;;;5094194;28;20187;-65
2021/06/01 02:11:48;;;;;;;7.55;5.88;;;11.10;99.90;;;;;;5093214;28;20254;-65
2021/06/01 02:14:13;;;;;;;6.23;5.30;;;11.10;99.90;;;;;;5094142;28;20287;-67
2021/06/01 02:16:41;;;;;;;6.30;4.97;;;11.10;99.90;;;;;;5094477;28;20632;-65
2021/06/01 02:19:10;;;;;;;6.38;4.30;;;11.20;99.90;;;;;;5092745;28;20941;-66
2021/06/01 02:24:30;;;;;;;6.03;5.10;;;11.10;99.90;;;;;;5094010;28;20524;-65
2021/06/01 02:27:07;;;;;;;5.47;4.97;;;11.10;99.90;;;;;;5094342;28;20191;-66
2021/06/01 02:29:43;;;;;;;6.80;5.13;;;11.00;99.90;;;;;;5093951;28;20160;-66
2021/06/01 02:32:11;;;;;;;5.40;4.90;;;11.10;99.90;;;;;;5093906;28;20195;-65
2021/06/01 02:34:39;;;;;;;6.22;5.10;;;11.10;99.90;;;;;;5093782;28;20252;-65
2021/06/01 02:37:07;;;;;;;7.20;5.28;;;11.10;99.90;;;;;;5094133;28;20192;-67
2021/06/01 02:39:34;;;;;;;11.80;5.82;;;11.00;99.90;;;;;;5093796;28;20634;-67
2021/06/01 02:42:02;;;;;;;5.78;4.75;;;10.90;99.90;;;;;;5094269;28;20208;-65
2021/06/01 02:44:28;;;;;;;6.80;5.75;;;11.00;99.90;;;;;;5093849;28;20164;-67
2021/06/01 02:46:54;;;;;;;6.20;5.15;;;11.00;99.90;;;;;;5093633;28;20571;-65
2021/06/01 02:49:20;;;;;;;7.63;5.07;;;10.90;99.90;;;;;;5093740;28;20173;-67
2021/06/01 02:51:46;;;;;;;7.15;5.50;;;10.90;99.90;;;;;;5093893;28;20196;-65
2021/06/01 02:54:12;;;;;;;5.67;5.07;;;11.00;99.90;;;;;;5093602;28;20206;-66
2021/06/01 02:56:38;;;;;;;6.87;5.90;;;10.90;99.90;;;;;;5094012;28;20543;-66
2021/06/01 02:59:07;;;;;;;5.80;5.13;;;10.90;99.90;;;;;;5092279;28;20177;-67
2021/06/01 03:01:32;;;;;;;7.68;5.43;;;10.90;99.90;;;;;;5092505;28;20212;-65
2021/06/01 03:03:58;;;;;;;6.80;4.77;;;11.00;99.90;;;;;;5093538;28;20175;-67
2021/06/01 03:06:25;;;;;;;7.20;4.90;;;11.00;99.90;;;;;;5093819;28;20218;-65
2021/06/01 03:08:51;;;;;;;5.32;4.82;;;11.00;99.90;;;;;;5093527;28;20169;-66
2021/06/01 03:11:20;;;;;;;8.23;5.10;;;11.10;99.90;;;;;;5092025;28;20297;-65
2021/06/01 03:13:50;;;;;;;5.88;4.85;;;11.20;99.90;;;;;;5093369;28;20295;-65
2021/06/01 03:16:17;;;;;;;5.95;4.90;;;11.20;99.90;;;;;;5093779;28;20196;-65
2021/06/01 03:18:43;;;;;;;6.47;4.70;;;11.30;99.90;;;;;;5092171;28;20177;-67
2021/06/01 03:21:10;;;;;;;7.85;4.90;;;11.40;99.90;;;;;;5093674;28;20204;-65
2021/06/01 03:23:36;;;;;;;7.22;3.85;;;11.40;99.90;;;;;;5095987;28;20543;-66
2021/06/01 03:26:03;;;;;;;7.03;5.40;;;11.40;99.90;;;;;;5096001;28;20228;-66
2021/06/01 03:28:29;;;;;;;5.30;4.80;;;11.50;99.90;;;;;;5097224;28;20779;-66
2021/06/01 03:30:55;;;;;;;6.40;4.82;;;11.50;99.90;;;;;;5095868;28;20538;-66
2021/06/01 03:33:21;;;;;;;6.50;5.03;;;11.50;99.90;;;;;;5097075;28;20254;-66
2021/06/01 03:35:47;;;;;;;5.33;4.37;;;11.50;99.90;;;;;;5097076;28;20241;-65
2021/06/01 03:38:13;;;;;;;7.20;5.28;;;11.60;99.90;;;;;;5095712;28;20176;-65
2021/06/01 03:40:39;;;;;;;6.67;5.27;;;11.70;99.90;;;;;;5097052;28;20553;-65
2021/06/01 03:43:05;;;;;;;6.43;5.80;;;11.70;99.90;;;;;;5095583;28;20496;-67
2021/06/01 03:45:32;;;;;;;6.77;5.10;;;11.70;99.90;;;;;;5096926;28;20208;-65
2021/06/01 03:47:58;;;;;;;8.40;4.95;;;11.70;99.90;;;;;;5096772;28;20405;-65
2021/06/01 03:50:24;;;;;;;5.60;4.90;;;11.80;99.90;;;;;;5096636;28;20673;-66
2021/06/01 03:52:50;;;;;;;5.88;4.75;;;11.80;99.90;;;;;;5096651;28;20165;-66
2021/06/01 03:55:17;;;;;;;6.50;5.03;;;11.80;99.90;;;;;;5095344;28;20196;-67
2021/06/01 03:57:47;;;;;;;5.57;4.80;;;11.80;99.90;;;;;;5095305;28;20184;-67
2021/06/01 04:00:16;;;;;;;5.30;4.80;;;11.90;99.90;;;;;;5096562;28;20196;-65
2021/06/01 04:02:42;;;;;;;6.93;5.05;;;11.80;99.90;;;;;;5096473;28;20412;-65
2021/06/01 04:05:08;;;;;;;5.20;4.70;;;11.90;99.90;;;;;;5095159;28;20182;-65
2021/06/01 04:07:34;;;;;;;6.27;4.83;;;11.90;99.90;;;;;;5096441;28;20398;-65
2021/06/01 04:10:00;;;;;;;5.30;4.80;;;11.90;99.90;;;;;;5096403;28;20919;-66
2021/06/01 04:12:25;;;;;;;6.00;4.30;;;12.00;99.90;;;;;;5095472;28;20315;-66
2021/06/01 04:14:51;;;;;;;10.57;5.97;;;12.10;99.90;;;;;;5093610;28;20873;-67
2021/06/01 04:17:16;;;;;;;7.30;5.10;;;12.00;99.90;;;;;;5097016;28;20252;-66
2021/06/01 04:19:42;;;;;;;6.33;4.97;;;12.00;99.90;;;;;;5096339;28;20183;-65
2021/06/01 04:22:08;;;;;;;5.60;4.70;;;12.10;99.90;;;;;;5095094;28;20220;-66
2021/06/01 04:24:34;;;;;;;6.20;4.97;;;12.10;99.90;;;;;;5095902;28;20256;-66
2021/06/01 04:27:01;;;;;;;5.63;4.80;;;12.20;99.90;;;;;;5096344;28;20543;-67
2021/06/01 04:29:28;;;;;;;8.73;5.82;;;12.20;99.90;;;;;;5096040;28;20408;-67
2021/06/01 04:31:53;;;;;;;5.95;4.90;;;12.10;99.90;;;;;;5096432;28;20224;-67
2021/06/01 04:34:19;;;;;;;5.27;4.77;;;12.20;99.90;;;;;;5094860;28;20258;-67
2021/06/01 04:36:45;;;;;;;6.37;4.70;;;12.30;99.90;;;;;;5094310;28;20216;-67
2021/06/01 04:39:11;;;;;;;5.80;4.60;;;12.20;99.90;;;;;;5093614;28;20213;-66
2021/06/01 04:41:38;;;;;;;4.90;4.40;;;12.30;99.90;;;;;;5093585;28;20230;-69
2021/06/01 04:44:04;;;;;;;6.55;5.15;;;12.30;99.90;;;;;;5091742;28;20506;-65
2021/06/01 04:46:29;;;;;;;6.13;5.32;;;12.30;99.90;;;;;;5082181;28;20570;-65
2021/06/01 04:48:55;;;;;;;5.53;4.90;;;12.40;99.90;;;;;;5096938;28;20173;-67
2021/06/01 04:51:21;;;;;;;13.23;7.60;;;12.50;99.90;;;;;;5094411;28;20283;-66
2021/06/01 04:53:48;;;;;;;5.50;5.00;;;12.60;99.90;;;;;;5095449;28;20231;-66
2021/06/01 04:56:14;;;;;;;5.90;4.67;;;12.60;99.90;;;;;;5094728;28;20291;-65
2021/06/01 04:58:40;;;;;;;5.63;5.03;;;12.60;99.90;;;;;;5092894;28;20497;-66
2021/06/01 05:01:06;;;;;;;6.35;4.32;;;12.70;99.90;;;;;;5078853;28;20913;-66
2021/06/01 05:03:31;;;;;;;6.37;4.67;;;12.80;99.90;;;;;;5095378;28;20181;-66
2021/06/01 05:05:57;;;;;;;5.60;4.50;;;13.00;99.90;;;;;;5092537;28;20205;-65
2021/06/01 05:08:23;;;;;;;5.40;4.23;;;13.00;99.90;;;;;;5095289;28;20175;-66
2021/06/01 05:10:48;;;;;;;7.53;4.90;;;13.00;99.90;;;;;;5095045;28;20444;-65
2021/06/01 05:13:14;;;;;;;6.50;4.50;;;13.00;99.90;;;;;;5095351;28;20196;-65
2021/06/01 05:15:39;;;;;;;5.10;4.60;;;13.20;99.90;;;;;;5093412;28;20653;-65
2021/06/01 05:18:05;;;;;;;8.57;4.60;;;13.30;99.90;;;;;;5094483;28;20274;-66
2021/06/01 05:20:31;;;;;;;6.00;5.00;;;13.30;99.90;;;;;;5093571;28;20200;-65
2021/06/01 05:22:56;;;;;;;6.40;5.47;;;13.40;99.90;;;;;;5095028;28;20649;-67
2021/06/01 05:25:22;;;;;;;6.73;4.83;;;13.40;99.90;;;;;;5094740;28;20235;-66
2021/06/01 05:27:47;;;;;;;8.77;4.30;;;13.40;99.90;;;;;;5092911;28;20191;-67
2021/06/01 05:30:24;;;;;;;7.77;4.87;;;13.50;99.90;;;;;;5091134;28;20196;-65
2021/06/01 05:35:27;;;;;;;5.37;4.87;;;13.70;99.90;;;;;;5093490;28;20514;-66
2021/06/01 05:37:53;;;;;;;6.57;4.50;;;13.80;99.90;;;;;;5092342;28;20405;-65
2021/06/01 05:40:18;;;;;;;5.73;4.03;;;14.20;99.90;;;;;;5090322;28;21071;-67
2021/06/01 05:42:44;;;;;;;7.33;4.67;;;14.10;99.90;;;;;;5092990;28;20168;-67
2021/06/01 05:45:10;;;;;;;8.20;5.17;;;14.30;99.90;;;;;;5093220;28;20168;-65
2021/06/01 05:47:36;;;;;;;5.23;4.70;;;14.40;99.90;;;;;;5094456;28;20180;-68
2021/06/01 05:50:03;;;;;;;8.03;5.43;;;14.40;99.90;;;;;;5094054;28;20890;-67
2021/06/01 05:52:29;;;;;;;6.53;4.73;;;14.40;99.90;;;;;;5094113;28;20656;-67
2021/06/01 05:54:55;;;;;;;5.70;4.77;;;14.50;99.90;;;;;;5091739;28;20464;-65
2021/06/01 05:57:22;;;;;;;4.23;3.83;;;14.50;99.90;;;;;;5093469;28;20184;-65
2021/06/01 05:59:47;;;;;;;5.27;4.10;;;14.50;99.90;;;;;;5093041;28;20173;-66
2021/06/01 06:02:13;;;;;;;8.60;4.93;;;14.80;99.90;;;;;;5093579;28;20440;-65
2021/06/01 06:04:38;;;;;;;5.23;4.73;;;15.00;99.90;;;;;;5092339;28;20263;-67
2021/06/01 06:07:04;;;;;;;6.40;4.37;;;15.20;99.90;;;;;;5091446;28;20196;-67
2021/06/01 06:09:29;;;;;;;5.40;4.27;;;15.20;99.90;;;;;;5091677;28;20884;-66
2021/06/01 06:11:57;;;;;;;6.37;4.77;;;15.40;99.90;;;;;;5090416;28;20258;-66
2021/06/01 06:14:22;;;;;;;5.20;4.70;;;15.60;99.90;;;;;;5091576;28;20224;-67
2021/06/01 06:16:56;;;;;;;6.70;4.60;;;15.30;99.90;;;;;;5092203;28;20533;-66
2021/06/01 06:19:22;;;;;;;4.10;3.70;;;15.30;99.90;;;;;;5091886;28;20516;-66
2021/06/01 06:21:48;;;;;;;4.73;4.03;;;15.30;99.90;;;;;;5094206;28;20498;-66
2021/06/01 06:24:13;;;;;;;4.20;3.90;;;15.40;99.90;;;;;;5093363;28;20393;-66
2021/06/01 06:26:39;;;;;;;4.93;3.80;;;15.80;99.90;;;;;;5092502;28;20738;-65
2021/06/01 06:29:05;;;;;;;5.07;4.20;;;15.60;99.90;;;;;;5092018;28;20630;-68
2021/06/01 06:31:30;;;;;;;7.53;4.17;;;16.10;99.90;;;;;;5091256;28;20205;-67
2021/06/01 06:33:57;;;;;;;3.77;3.37;;;16.10;99.90;;;;;;5089343;28;20298;-67
2021/06/01 06:36:23;;;;;;;9.40;4.80;;;16.00;99.90;;;;;;5093671;28;20200;-68
2021/06/01 06:38:49;;;;;;;5.43;4.63;;;15.90;99.90;;;;;;5087021;28;20421;-66
2021/06/01 06:41:15;;;;;;;5.50;4.20;;;15.90;99.90;;;;;;5090478;28;20258;-67
2021/06/01 06:43:49;;;;;;;6.10;4.37;;;15.80;99.90;;;;;;5085861;28;20195;-66
2021/06/01 06:46:25;;;;;;;5.10;4.60;;;15.80;99.90;;;;;;5093876;28;20953;-66
2021/06/01 06:48:51;;;;;;;4.63;4.20;;;15.90;99.90;;;;;;5093405;28;20906;-68
2021/06/01 06:51:17;;;;;;;6.37;4.70;;;16.20;99.90;;;;;;5093662;28;21086;-66
2021/06/01 06:53:55;;;;;;;6.30;5.13;;;16.60;99.90;;;;;;5092403;28;20560;-67
2021/06/01 06:56:24;;;;;;;7.40;4.27;;;16.60;99.90;;;;;;5091138;28;20567;-67
2021/06/01 06:58:50;;;;;;;6.13;4.30;;;16.40;99.90;;;;;;5092390;28;20780;-67
2021/06/01 07:01:16;;;;;;;6.40;4.47;;;16.40;99.90;;;;;;5091798;28;20449;-67
2021/06/01 07:03:42;;;;;;;6.20;4.80;;;16.40;99.90;;;;;;5097669;28;20397;-66
2021/06/01 07:06:08;;;;;;;7.00;5.30;;;16.40;99.90;;;;;;5096255;28;20945;-66
2021/06/01 07:08:34;;;;;;;6.53;4.70;;;16.30;99.90;;;;;;5096939;28;20645;-67
2021/06/01 07:11:00;;;;;;;6.60;4.27;;;16.40;99.90;;;;;;5096310;28;20204;-66
2021/06/01 07:13:38;;;;;;;4.57;4.07;;;16.30;99.90;;;;;;5096828;28;20475;-66
2021/06/01 07:16:04;;;;;;;5.40;4.40;;;16.40;99.90;;;;;;5095682;28;20940;-67
2021/06/01 07:18:31;;;;;;;5.50;4.60;;;16.80;99.90;;;;;;5095468;28;20429;-69
2021/06/01 07:20:58;;;;;;;5.90;5.03;;;17.10;99.90;;;;;;5076302;28;20209;-66
2021/06/01 07:23:24;;;;;;;5.30;4.73;;;17.40;99.90;;;;;;5092558;28;20909;-66
2021/06/01 07:25:50;;;;;;;4.87;3.90;;;17.30;99.90;;;;;;5095278;28;20468;-68
2021/06/01 07:28:16;;;;;;;4.70;3.97;;;17.60;99.90;;;;;;5096166;28;20523;-68
2021/06/01 07:30:41;;;;;;;5.40;4.27;;;17.30;99.90;;;;;;5096519;28;20486;-67
2021/06/01 07:33:07;;;;;;;6.70;4.87;;;17.70;99.90;;;;;;5093818;28;20210;-68
2021/06/01 07:35:33;;;;;;;4.97;4.47;;;17.90;99.90;;;;;;5096678;28;20200;-67
2021/06/01 07:37:58;;;;;;;5.60;4.63;;;17.70;99.90;;;;;;5096801;28;20184;-67
2021/06/01 07:40:25;;;;;;;7.43;4.40;;;17.60;99.90;;;;;;5096388;28;20208;-66
2021/06/01 07:42:51;;;;;;;5.53;4.47;;;17.80;99.90;;;;;;5094585;28;20436;-67
2021/06/01 07:45:17;;;;;;;6.10;4.30;;;18.20;99.90;;;;;;5093399;28;20440;-65
2021/06/01 07:47:43;;;;;;;6.77;4.40;;;18.50;99.90;;;;;;5091539;28;20177;-66
2021/06/01 07:50:09;;;;;;;5.80;4.83;;;18.30;99.90;;;;;;5086855;28;20191;-67
2021/06/01 07:52:35;;;;;;;5.40;4.47;;;18.40;99.90;;;;;;5087669;28;20187;-66
2021/06/01 07:55:00;;;;;;;6.23;3.90;;;19.00;99.90;;;;;;5092147;28;20559;-65
2021/06/01 07:57:26;;;;;;;9.40;4.57;;;19.00;99.90;;;;;;5093566;28;20629;-68
2021/06/01 07:59:52;;;;;;;5.60;4.17;;;19.20;99.90;;;;;;5092818;28;20180;-66
2021/06/01 08:02:18;;;;;;;3.93;3.63;;;19.30;99.90;;;;;;5092789;28;20267;-66
2021/06/01 08:04:44;;;;;;;6.57;3.90;;;19.30;99.90;;;;;;5093028;28;20177;-68
2021/06/01 08:07:11;;;;;;;4.70;3.70;;;19.40;99.90;;;;;;5094435;28;20474;-66
2021/06/01 08:09:36;;;;;;;5.53;4.93;;;19.40;99.90;;;;;;5093077;28;20169;-67
2021/06/01 08:12:03;;;;;;;7.97;4.40;;;19.20;99.90;;;;;;5093116;28;20891;-67
2021/06/01 08:14:29;;;;;;;5.07;4.57;;;19.40;99.90;;;;;;5091530;28;20212;-66
2021/06/01 08:16:55;;;;;;;5.43;4.23;;;19.30;99.90;;;;;;5094459;28;20459;-68
2021/06/01 08:19:25;;;;;;;13.33;4.40;;;19.40;99.90;;;;;;5092419;28;20796;-67
2021/06/01 08:24:25;;;;;;;5.70;4.40;;;19.40;99.90;;;;;;5089510;28;20488;-66
2021/06/01 08:26:51;;;;;;;4.90;4.33;;;19.50;99.90;;;;;;5093268;28;20456;-66
2021/06/01 08:29:17;;;;;;;6.47;3.80;;;19.50;99.90;;;;;;5093517;28;20931;-68
2021/06/01 08:31:43;;;;;;;6.90;3.60;;;19.60;99.90;;;;;;5095927;28;20644;-68
2021/06/01 08:34:09;;;;;;;3.63;3.33;;;19.60;99.90;;;;;;5086996;28;20215;-68
2021/06/01 08:36:38;;;;;;;6.77;3.80;;;19.70;99.90;;;;;;5092621;28;20468;-66
2021/06/01 08:39:06;;;;;;;3.80;3.50;;;19.80;99.90;;;;;;5092512;28;20414;-67
2021/06/01 08:41:32;;;;;;;5.00;3.80;;;19.90;99.90;;;;;;5087123;28;20461;-68
2021/06/01 08:44:03;;;;;;;5.67;4.27;;;19.80;99.90;;;;;;5093748;28;20426;-68
2021/06/01 08:46:33;;;;;;;4.40;4.00;;;19.70;99.90;;;;;;5089019;28;20469;-68
2021/06/01 08:48:59;;;;;;;4.30;3.57;;;19.90;99.90;;;;;;5086083;28;20779;-67
2021/06/01 08:51:26;;;;;;;6.50;4.00;;;19.90;99.90;;;;;;5084702;28;20473;-66
2021/06/01 08:53:55;;;;;;;4.50;3.47;;;19.90;99.90;;;;;;5088584;28;20211;-67
2021/06/01 08:56:21;;;;;;;3.50;2.97;;;19.90;99.90;;;;;;5090675;28;20536;-66
2021/06/01 08:58:49;;;;;;;4.00;3.60;;;20.00;99.90;;;;;;5091732;28;20854;-68
2021/06/01 09:01:15;;;;;;;4.10;3.70;;;20.00;99.90;;;;;;5090722;28;20217;-66
2021/06/01 09:03:48;;;;;;;3.97;3.33;;;20.20;99.90;;;;;;5089408;28;20427;-67
2021/06/01 09:06:20;;;;;;;3.87;3.53;;;20.20;99.90;;;;;;5087654;28;20552;-67
2021/06/01 09:22:01;;;;;;;4.47;3.63;;;20.10;99.90;;;;;;5088978;28;20499;-68
2021/06/01 09:24:27;;;;;;;3.87;3.57;;;20.30;99.90;;;;;;5091187;28;20935;-67
2021/06/01 09:27:16;;;;;;;3.90;3.23;;;20.40;99.90;;;;;;5091390;28;20214;-68
2021/06/01 09:29:48;;;;;;;4.27;3.30;;;20.60;99.90;;;;;;5090366;28;20191;-66
2021/06/01 09:32:16;;;;;;;4.90;2.73;;;20.70;99.90;;;;;;5082486;28;20455;-67
2021/06/01 09:34:47;;;;;;;3.10;2.80;;;20.70;99.90;;;;;;5087578;28;20460;-68
2021/06/01 09:37:35;;;;;;;3.27;3.07;;;21.00;99.90;;;;;;5092645;28;21003;-67
2021/06/01 09:40:13;;;;;;;5.10;2.90;;;21.20;99.90;;;;;;5088728;28;20485;-67
2021/06/01 09:42:42;;;;;;;4.73;4.00;;;21.10;99.90;;;;;;5092849;28;20428;-68
2021/06/01 09:45:14;;;;;;;3.97;3.60;;;21.10;99.90;;;;;;5082484;28;20471;-66
2021/06/01 09:47:54;;;;;;;4.30;3.50;;;21.00;99.90;;;;;;5091122;28;20470;-68
2021/06/01 09:53:29;;;;;;;3.40;3.07;;;20.70;99.90;;;;;;5067335;28;20448;-66
2021/06/01 09:55:56;;;;;;;4.07;3.77;;;20.50;99.90;;;;;;5093757;28;20543;-67
2021/06/01 09:58:36;;;;;;;3.30;3.00;;;20.50;99.90;;;;;;5093770;28;20416;-67
2021/06/01 10:01:06;;;;;;;3.30;3.00;;;20.70;99.90;;;;;;5088508;28;20487;-66
2021/06/01 10:03:48;;;;;;;4.87;3.40;;;20.70;99.90;;;;;;5092398;28;20420;-68
2021/06/01 10:06:14;;;;;;;5.23;3.97;;;21.20;99.90;;;;;;5087620;28;20468;-66
2021/06/01 10:08:46;;;;;;;4.13;3.53;;;21.60;99.90;;;;;;5091227;28;20417;-69
2021/06/01 10:11:12;;;;;;;3.17;2.87;;;21.80;99.90;;;;;;5072911;28;20477;-66
2021/06/01 10:13:40;;;;;;;4.30;2.93;;;21.90;99.90;;;;;;5090064;28;20710;-68
2021/06/01 10:16:17;;;;;;;3.20;2.70;;;21.80;99.90;;;;;;5090007;28;20463;-67
2021/06/01 10:18:44;;;;;;;4.20;3.30;;;21.70;99.90;;;;;;5088313;28;20422;-68
2021/06/01 10:21:18;;;;;;;3.03;2.83;;;21.90;99.90;;;;;;5091306;28;20461;-66
2021/06/01 10:23:47;;;;;;;3.07;2.77;;;21.90;99.90;;;;;;5092529;28;20500;-66
2021/06/01 10:26:13;;;;;;;3.10;2.80;;;22.00;99.90;;;;;;5085028;28;20476;-67
2021/06/01 10:28:43;;;;;;;3.73;3.43;;;22.00;99.90;;;;;;5081702;28;20430;-67
2021/06/01 10:31:11;;;;;;;8.60;3.27;;;22.00;99.90;;;;;;5077993;28;20611;-66
2021/06/01 10:33:38;;;;;;;3.83;3.40;;;22.10;99.90;;;;;;5078570;28;20508;-68
2021/06/01 10:52:12;;;;;;;2.80;2.60;;;22.10;99.90;;;;;;5089291;28;20456;-66
2021/06/01 10:54:45;;;;;;;4.23;2.40;;;22.30;99.90;;;;;;5087592;28;20464;-67
2021/06/01 10:57:12;;;;;;;3.20;2.70;;;22.30;99.90;;;;;;5091358;28;21155;-68
2021/06/01 10:59:57;;;;;;;4.70;3.10;;;22.20;99.90;;;;;;5091913;28;20509;-68
2021/06/01 11:02:25;;;;;;;4.27;2.30;;;22.60;99.90;;;;;;5073876;28;20429;-68
2021/06/01 11:05:11;;;;;;;3.60;3.30;;;22.70;97.50;;;;;;5083215;28;20438;-67
2021/06/01 11:07:55;;;;;;;3.30;3.00;;;22.60;97.50;;;;;;5085172;28;20428;-68
2021/06/01 11:10:42;;;;;;;3.10;2.77;;;22.40;97.80;;;;;;5091310;28;20527;-66
2021/06/01 11:13:10;;;;;;;3.37;3.07;;;22.30;97.50;;;;;;5080275;28;20472;-68
2021/06/01 11:15:40;;;;;;;3.10;2.80;;;22.30;99.20;;;;;;5089292;28;20465;-67
2021/06/01 11:18:12;;;;;;;6.43;2.90;;;22.50;98.90;;;;;;5090231;28;20871;-66
2021/06/01 11:20:41;;;;;;;3.20;2.90;;;22.60;96.30;;;;;;5086330;28;20441;-67
2021/06/01 11:33:53;;;;;;;2.67;2.47;;;22.60;95.20;;;;;;5090001;28;20556;-66
2021/06/01 11:36:20;;;;;;;2.87;2.53;;;22.60;94.80;;;;;;5086150;28;20539;-67
2021/06/01 11:44:17;;;;;;;3.83;2.80;;;22.70;94.00;;;;;;5090439;28;20424;-68
2021/06/01 11:46:49;;;;;;;2.63;2.43;;;22.50;95.20;;;;;;5092849;28;20514;-68
2021/06/01 11:51:59;;;;;;;4.77;2.80;;;22.90;95.60;;;;;;5093889;28;20521;-68
2021/06/01 11:54:25;;;;;;;3.37;2.90;;;23.00;96.70;;;;;;5094821;28;20496;-68
2021/06/01 12:03:01;;;;;;;2.90;2.70;;;22.80;94.60;;;;;;5093163;28;20994;-66
2021/06/01 12:19:01;;;;;;;4.10;3.13;;;22.50;93.10;;;;;;5091326;28;21013;-66
2021/06/01 12:21:28;;;;;;;5.80;3.10;;;22.30;93.40;;;;;;5094930;28;20437;-66
2021/06/01 12:24:10;;;;;;;3.10;2.60;;;22.30;93.80;;;;;;5114797;27;20413;-68
2021/06/01 12:32:39;;;;;;;2.97;2.73;;;22.40;93.30;;;;;;5094965;28;20468;-68
2021/06/01 12:35:22;;;;;;;4.80;3.37;;;22.80;92.60;;;;;;5093017;28;20471;-68
2021/06/01 13:14:46;;;;;;;3.70;2.30;;;23.60;91.70;;;;;;5092740;28;20468;-67
2021/06/01 13:19:49;;;;;;;2.03;1.93;;;23.60;90.80;;;;;;5092071;28;20451;-66
2021/06/01 13:38:58;;;;;;;5.57;2.50;;;24.60;90.00;;;;;;5082290;28;20595;-69
2021/06/01 13:46:52;;;;;;;5.50;2.33;;;24.00;83.00;;;;;;5091969;28;20524;-66
2021/06/01 14:10:59;;;;;;;3.37;2.63;;;24.40;91.40;;;;;;5091395;28;20549;-67
2021/06/01 14:37:52;;;;;;;2.33;2.13;;;23.30;93.70;;;;;;5090872;28;20431;-68
2021/06/01 15:03:51;;;;;;;4.50;2.80;;;23.80;88.60;;;;;;5089986;28;20455;-67
2021/06/01 15:49:48;;;;;;;2.50;2.17;;;22.90;84.50;;;;;;5073617;28;20423;-68
2021/06/01 15:55:19;;;;;;;3.23;2.33;;;22.90;83.00;;;;;;5095715;28;20875;-69
2021/06/01 16:15:05;;;;;;;2.77;2.30;;;21.80;84.40;;;;;;5095503;28;20833;-68
2021/06/01 17:03:30;;;;;;;3.27;2.40;;;22.40;80.80;;;;;;5090189;28;20466;-66
2021/06/01 17:06:14;;;;;;;4.17;2.90;;;22.60;82.10;;;;;;5092485;28;20508;-66
2021/06/01 17:11:19;;;;;;;2.77;2.53;;;22.50;81.40;;;;;;5093625;28;20868;-68
2021/06/01 17:13:54;;;;;;;5.90;2.80;;;22.40;81.10;;;;;;5093964;28;20456;-67
2021/06/01 17:16:41;;;;;;;3.97;2.40;;;22.40;80.60;;;;;;5089946;28;20459;-66
2021/06/01 17:35:22;;;;;;;2.83;2.63;;;21.80;82.00;;;;;;5072525;28;20468;-67
2021/06/01 17:37:48;;;;;;;3.20;2.33;;;21.80;81.70;;;;;;5071040;28;20930;-68
2021/06/01 17:40:18;;;;;;;2.83;2.63;;;21.40;81.40;;;;;;5071042;28;20545;-66
2021/06/01 17:42:59;;;;;;;4.43;3.43;;;21.20;82.30;;;;;;5072157;28;20807;-67
2021/06/01 17:45:25;;;;;;;6.10;4.67;;;21.10;83.00;;;;;;5072993;28;20938;-66
2021/06/01 17:47:56;;;;;;;4.47;2.73;;;20.70;84.70;;;;;;5072349;28;20406;-67
2021/06/01 17:50:23;;;;;;;4.23;3.30;;;20.80;84.30;;;;;;5071129;28;20204;-67
2021/06/01 17:52:53;;;;;;;5.20;3.10;;;20.50;85.30;;;;;;5070959;28;20431;-67
2021/06/01 17:55:23;;;;;;;3.80;2.70;;;20.40;85.10;;;;;;5070869;28;20468;-66
2021/06/01 17:57:50;;;;;;;4.17;2.70;;;20.30;85.20;;;;;;5072254;28;21105;-67
2021/06/01 18:00:17;;;;;;;6.10;2.50;;;20.30;85.50;;;;;;5073024;28;20430;-67
2021/06/01 18:02:46;;;;;;;2.90;2.40;;;20.20;86.00;;;;;;5073956;28;20823;-67
2021/06/01 18:05:13;;;;;;;2.50;2.30;;;20.10;86.20;;;;;;5074003;28;21033;-66
2021/06/01 18:07:49;;;;;;;3.47;3.03;;;20.20;86.50;;;;;;5074097;28;20405;-66
2021/06/01 18:40:53;;;;;;;3.80;3.50;;;19.20;94.20;;;;;;5071788;28;20396;-68
2021/06/01 19:25:07;;;;;;;8.07;3.90;;;17.20;99.90;;;;;;5076313;28;20424;-67
2021/06/01 19:50:12;;;;;;;8.63;7.40;;;16.60;99.90;;;;;;5076804;28;20747;-66
2021/06/01 19:52:41;;;;;;;9.20;8.03;;;16.50;99.90;;;;;;5076491;28;20444;-68
2021/06/01 19:55:08;;;;;;;11.00;6.00;;;16.60;99.90;;;;;;5075236;28;20472;-66
2021/06/01 19:57:33;;;;;;;9.00;5.40;;;16.60;99.90;;;;;;5076593;28;20394;-67
2021/06/01 19:59:59;;;;;;;7.67;6.03;;;16.50;99.90;;;;;;5074999;28;20415;-68
2021/06/01 20:02:30;;;;;;;7.67;5.00;;;16.30;99.90;;;;;;5090790;28;20458;-68
2021/06/01 20:04:58;;;;;;;7.17;4.40;;;16.20;99.90;;;;;;5093144;28;20187;-67
2021/06/01 20:07:25;;;;;;;6.43;4.90;;;16.20;99.90;;;;;;5093411;28;20849;-67
2021/06/01 20:09:52;;;;;;;9.60;7.97;;;16.20;99.90;;;;;;5073232;28;20475;-66
2021/06/01 20:12:19;;;;;;;6.40;4.20;;;16.20;99.90;;;;;;5074108;28;20494;-66
2021/06/01 20:14:45;;;;;;;8.13;5.27;;;16.20;99.90;;;;;;5073923;28;20450;-67
2021/06/01 20:17:31;;;;;;;5.50;4.20;;;16.20;99.90;;;;;;5074474;28;20437;-66